sensor_id;sensor_type;location;lat;lon;timestamp;pressure;altitude;pressure_sealevel;temperature
69545;BMP180;56766;52.260;20.746;2023-08-08T00:01:15;99530.20;;;14.90
69545;BMP180;56766;52.260;20.746;2023-08-08T00:03:42;99527.20;;;14.80
69545;BMP180;56766;52.260;20.746;2023-08-08T00:06:09;99532.40;;;14.80
69545;BMP180;56766;52.260;20.746;2023-08-08T00:08:36;99533.60;;;14.70
69545;BMP180;56766;52.260;20.746;2023-08-08T00:11:03;99540.00;;;14.70
69545;BMP180;56766;52.260;20.746;2023-08-08T00:13:29;99544.00;;;14.60
69545;BMP180;56766;52.260;20.746;2023-08-08T00:15:56;99546.40;;;14.60
69545;BMP180;56766;52.260;20.746;2023-08-08T00:18:23;99550.60;;;14.60
69545;BMP180;56766;52.260;20.746;2023-08-08T00:20:50;99545.00;;;14.50
69545;BMP180;56766;52.260;20.746;2023-08-08T00:23:17;99551.60;;;14.50
69545;BMP180;56766;52.260;20.746;2023-08-08T00:25:43;99554.60;;;14.50
69545;BMP180;56766;52.260;20.746;2023-08-08T00:28:11;99553.80;;;14.50
69545;BMP180;56766;52.260;20.746;2023-08-08T00:30:37;99550.80;;;14.50
69545;BMP180;56766;52.260;20.746;2023-08-08T00:33:04;99559.00;;;14.50
69545;BMP180;56766;52.260;20.746;2023-08-08T00:35:31;99560.20;;;14.50
69545;BMP180;56766;52.260;20.746;2023-08-08T00:37:58;99560.40;;;14.42
69545;BMP180;56766;52.260;20.746;2023-08-08T00:40:24;99563.00;;;14.40
69545;BMP180;56766;52.260;20.746;2023-08-08T00:42:51;99566.00;;;14.38
69545;BMP180;56766;52.260;20.746;2023-08-08T00:45:18;99568.00;;;14.30
69545;BMP180;56766;52.260;20.746;2023-08-08T00:47:44;99564.60;;;14.24
69545;BMP180;56766;52.260;20.746;2023-08-08T00:50:13;99572.40;;;14.20
69545;BMP180;56766;52.260;20.746;2023-08-08T00:52:43;99574.60;;;14.10
69545;BMP180;56766;52.260;20.746;2023-08-08T00:55:10;99575.80;;;14.10
69545;BMP180;56766;52.260;20.746;2023-08-08T00:57:38;99579.40;;;14.00
69545;BMP180;56766;52.260;20.746;2023-08-08T01:00:06;99582.60;;;14.00
69545;BMP180;56766;52.260;20.746;2023-08-08T01:02:38;99591.20;;;13.90
69545;BMP180;56766;52.260;20.746;2023-08-08T01:05:07;99594.20;;;13.90
69545;BMP180;56766;52.260;20.746;2023-08-08T01:07:54;99601.60;;;13.86
69545;BMP180;56766;52.260;20.746;2023-08-08T01:10:31;99600.20;;;13.80
69545;BMP180;56766;52.260;20.746;2023-08-08T01:13:06;99608.60;;;13.80
69545;BMP180;56766;52.260;20.746;2023-08-08T01:15:34;99607.20;;;13.80
69545;BMP180;56766;52.260;20.746;2023-08-08T01:18:08;99611.20;;;13.70
69545;BMP180;56766;52.260;20.746;2023-08-08T01:20:38;99608.80;;;13.70
69545;BMP180;56766;52.260;20.746;2023-08-08T01:24:15;99607.60;;;13.68
69545;BMP180;56766;52.260;20.746;2023-08-08T01:26:22;99606.20;;;13.60
69545;BMP180;56766;52.260;20.746;2023-08-08T01:28:53;99607.60;;;13.60
69545;BMP180;56766;52.260;20.746;2023-08-08T01:31:21;99613.40;;;13.60
69545;BMP180;56766;52.260;20.746;2023-08-08T01:33:48;99617.20;;;13.50
69545;BMP180;56766;52.260;20.746;2023-08-08T01:36:30;99621.20;;;13.50
69545;BMP180;56766;52.260;20.746;2023-08-08T01:39:01;99625.00;;;13.50
69545;BMP180;56766;52.260;20.746;2023-08-08T01:41:33;99627.80;;;13.40
69545;BMP180;56766;52.260;20.746;2023-08-08T01:44:01;99634.80;;;13.40
69545;BMP180;56766;52.260;20.746;2023-08-08T01:46:30;99634.00;;;13.50
69545;BMP180;56766;52.260;20.746;2023-08-08T01:48:59;99632.60;;;13.50
69545;BMP180;56766;52.260;20.746;2023-08-08T01:51:27;99636.80;;;13.48
69545;BMP180;56766;52.260;20.746;2023-08-08T01:53:54;99640.80;;;13.40
69545;BMP180;56766;52.260;20.746;2023-08-08T01:56:20;99642.80;;;13.40
69545;BMP180;56766;52.260;20.746;2023-08-08T01:58:47;99640.40;;;13.40
69545;BMP180;56766;52.260;20.746;2023-08-08T02:01:14;99637.60;;;13.30
69545;BMP180;56766;52.260;20.746;2023-08-08T02:03:40;99641.80;;;13.30
69545;BMP180;56766;52.260;20.746;2023-08-08T02:06:07;99645.40;;;13.30
69545;BMP180;56766;52.260;20.746;2023-08-08T02:08:34;99653.60;;;13.24
69545;BMP180;56766;52.260;20.746;2023-08-08T02:11:00;99656.60;;;13.20
69545;BMP180;56766;52.260;20.746;2023-08-08T02:13:27;99653.80;;;13.20
69545;BMP180;56766;52.260;20.746;2023-08-08T02:15:53;99660.40;;;13.20
69545;BMP180;56766;52.260;20.746;2023-08-08T02:18:20;99656.80;;;13.10
69545;BMP180;56766;52.260;20.746;2023-08-08T02:20:47;99662.80;;;13.10
69545;BMP180;56766;52.260;20.746;2023-08-08T02:23:13;99660.40;;;13.10
69545;BMP180;56766;52.260;20.746;2023-08-08T02:25:40;99661.60;;;13.08
69545;BMP180;56766;52.260;20.746;2023-08-08T02:28:07;99667.60;;;13.00
69545;BMP180;56766;52.260;20.746;2023-08-08T02:30:34;99672.40;;;13.00
69545;BMP180;56766;52.260;20.746;2023-08-08T02:33:00;99674.80;;;13.00
69545;BMP180;56766;52.260;20.746;2023-08-08T02:35:27;99681.80;;;12.90
69545;BMP180;56766;52.260;20.746;2023-08-08T02:37:54;99686.00;;;12.90
69545;BMP180;56766;52.260;20.746;2023-08-08T02:40:20;99683.40;;;12.90
69545;BMP180;56766;52.260;20.746;2023-08-08T02:42:50;99682.40;;;12.82
69545;BMP180;56766;52.260;20.746;2023-08-08T02:45:16;99684.00;;;12.80
69545;BMP180;56766;52.260;20.746;2023-08-08T02:47:43;99688.20;;;12.80
69545;BMP180;56766;52.260;20.746;2023-08-08T02:50:10;99685.80;;;12.76
69545;BMP180;56766;52.260;20.746;2023-08-08T02:52:36;99690.60;;;12.70
69545;BMP180;56766;52.260;20.746;2023-08-08T02:55:03;99695.20;;;12.70
69545;BMP180;56766;52.260;20.746;2023-08-08T02:57:30;99694.40;;;12.66
69545;BMP180;56766;52.260;20.746;2023-08-08T02:59:57;99703.60;;;12.60
69545;BMP180;56766;52.260;20.746;2023-08-08T03:02:24;99698.00;;;12.58
69545;BMP180;56766;52.260;20.746;2023-08-08T03:04:50;99697.80;;;12.50
69545;BMP180;56766;52.260;20.746;2023-08-08T03:07:17;99698.60;;;12.50
69545;BMP180;56766;52.260;20.746;2023-08-08T03:09:44;99706.00;;;12.50
69545;BMP180;56766;52.260;20.746;2023-08-08T03:12:10;99708.00;;;12.50
69545;BMP180;56766;52.260;20.746;2023-08-08T03:14:37;99711.60;;;12.46
69545;BMP180;56766;52.260;20.746;2023-08-08T03:17:04;99715.20;;;12.48
69545;BMP180;56766;52.260;20.746;2023-08-08T03:19:31;99712.60;;;12.40
69545;BMP180;56766;52.260;20.746;2023-08-08T03:21:58;99721.40;;;12.40
69545;BMP180;56766;52.260;20.746;2023-08-08T03:24:24;99725.40;;;12.40
69545;BMP180;56766;52.260;20.746;2023-08-08T03:26:51;99724.40;;;12.40
69545;BMP180;56766;52.260;20.746;2023-08-08T03:29:17;99726.60;;;12.40
69545;BMP180;56766;52.260;20.746;2023-08-08T03:31:44;99732.20;;;12.40
69545;BMP180;56766;52.260;20.746;2023-08-08T03:34:11;99736.20;;;12.40
69545;BMP180;56766;52.260;20.746;2023-08-08T03:36:37;99736.80;;;12.40
69545;BMP180;56766;52.260;20.746;2023-08-08T03:39:04;99738.00;;;12.50
69545;BMP180;56766;52.260;20.746;2023-08-08T03:41:31;99737.40;;;12.50
69545;BMP180;56766;52.260;20.746;2023-08-08T03:43:57;99743.60;;;12.50
69545;BMP180;56766;52.260;20.746;2023-08-08T03:46:24;99742.40;;;12.60
69545;BMP180;56766;52.260;20.746;2023-08-08T03:48:50;99747.60;;;12.60
69545;BMP180;56766;52.260;20.746;2023-08-08T03:51:17;99751.00;;;12.70
69545;BMP180;56766;52.260;20.746;2023-08-08T03:53:43;99756.40;;;12.74
69545;BMP180;56766;52.260;20.746;2023-08-08T03:56:10;99762.20;;;12.80
69545;BMP180;56766;52.260;20.746;2023-08-08T03:58:38;99758.20;;;12.90
69545;BMP180;56766;52.260;20.746;2023-08-08T04:01:05;99761.00;;;12.90
69545;BMP180;56766;52.260;20.746;2023-08-08T04:03:31;99763.60;;;12.94
69545;BMP180;56766;52.260;20.746;2023-08-08T04:05:58;99772.80;;;13.00
69545;BMP180;56766;52.260;20.746;2023-08-08T04:08:24;99768.60;;;13.00
69545;BMP180;56766;52.260;20.746;2023-08-08T04:10:51;99775.80;;;13.10
69545;BMP180;56766;52.260;20.746;2023-08-08T04:13:17;99778.00;;;13.10
69545;BMP180;56766;52.260;20.746;2023-08-08T04:15:44;99785.40;;;13.20
69545;BMP180;56766;52.260;20.746;2023-08-08T04:18:11;99790.00;;;13.30
69545;BMP180;56766;52.260;20.746;2023-08-08T04:20:38;99793.60;;;13.40
69545;BMP180;56766;52.260;20.746;2023-08-08T04:23:05;99789.20;;;13.50
69545;BMP180;56766;52.260;20.746;2023-08-08T04:25:31;99797.40;;;13.52
69545;BMP180;56766;52.260;20.746;2023-08-08T04:27:58;99796.20;;;13.60
69545;BMP180;56766;52.260;20.746;2023-08-08T04:30:25;99797.60;;;13.68
69545;BMP180;56766;52.260;20.746;2023-08-08T04:32:51;99799.00;;;13.72
69545;BMP180;56766;52.260;20.746;2023-08-08T04:35:18;99803.40;;;13.80
69545;BMP180;56766;52.260;20.746;2023-08-08T04:37:44;99810.60;;;13.90
69545;BMP180;56766;52.260;20.746;2023-08-08T04:40:11;99810.00;;;13.90
69545;BMP180;56766;52.260;20.746;2023-08-08T04:42:38;99814.40;;;13.98
69545;BMP180;56766;52.260;20.746;2023-08-08T04:45:05;99813.80;;;14.00
69545;BMP180;56766;52.260;20.746;2023-08-08T04:47:32;99815.40;;;14.10
69545;BMP180;56766;52.260;20.746;2023-08-08T04:49:59;99810.80;;;14.32
69545;BMP180;56766;52.260;20.746;2023-08-08T04:52:26;99828.20;;;14.66
69545;BMP180;56766;52.260;20.746;2023-08-08T04:54:52;99826.80;;;14.98
69545;BMP180;56766;52.260;20.746;2023-08-08T04:57:19;99826.00;;;15.10
69545;BMP180;56766;52.260;20.746;2023-08-08T04:59:46;99833.00;;;15.24
69545;BMP180;56766;52.260;20.746;2023-08-08T05:02:12;99832.00;;;15.36
69545;BMP180;56766;52.260;20.746;2023-08-08T05:04:39;99836.00;;;15.50
69545;BMP180;56766;52.260;20.746;2023-08-08T05:07:05;99837.40;;;15.60
69545;BMP180;56766;52.260;20.746;2023-08-08T05:09:32;99835.60;;;15.70
69545;BMP180;56766;52.260;20.746;2023-08-08T05:11:59;99835.60;;;15.80
69545;BMP180;56766;52.260;20.746;2023-08-08T05:14:25;99842.60;;;16.00
69545;BMP180;56766;52.260;20.746;2023-08-08T05:16:52;99837.80;;;16.10
69545;BMP180;56766;52.260;20.746;2023-08-08T05:19:19;99839.60;;;16.30
69545;BMP180;56766;52.260;20.746;2023-08-08T05:21:46;99838.60;;;16.40
69545;BMP180;56766;52.260;20.746;2023-08-08T05:24:12;99841.20;;;16.50
69545;BMP180;56766;52.260;20.746;2023-08-08T05:26:39;99837.80;;;16.60
69545;BMP180;56766;52.260;20.746;2023-08-08T05:29:05;99841.40;;;16.60
69545;BMP180;56766;52.260;20.746;2023-08-08T05:31:32;99840.20;;;16.68
69545;BMP180;56766;52.260;20.746;2023-08-08T05:33:59;99849.20;;;16.70
69545;BMP180;56766;52.260;20.746;2023-08-08T05:36:25;99852.00;;;16.72
69545;BMP180;56766;52.260;20.746;2023-08-08T05:38:52;99849.00;;;16.80
69545;BMP180;56766;52.260;20.746;2023-08-08T05:41:18;99851.60;;;16.80
69545;BMP180;56766;52.260;20.746;2023-08-08T05:43:45;99855.60;;;16.80
69545;BMP180;56766;52.260;20.746;2023-08-08T05:46:11;99861.20;;;16.90
69545;BMP180;56766;52.260;20.746;2023-08-08T05:48:38;99858.40;;;16.90
69545;BMP180;56766;52.260;20.746;2023-08-08T05:51:05;99861.80;;;17.00
69545;BMP180;56766;52.260;20.746;2023-08-08T05:53:32;99867.20;;;17.10
69545;BMP180;56766;52.260;20.746;2023-08-08T05:55:59;99867.00;;;17.20
69545;BMP180;56766;52.260;20.746;2023-08-08T05:58:25;99859.60;;;17.30
69545;BMP180;56766;52.260;20.746;2023-08-08T06:00:52;99862.80;;;17.40
69545;BMP180;56766;52.260;20.746;2023-08-08T06:03:19;99863.20;;;17.50
69545;BMP180;56766;52.260;20.746;2023-08-08T06:05:46;99865.80;;;17.60
69545;BMP180;56766;52.260;20.746;2023-08-08T06:08:12;99874.80;;;17.60
69545;BMP180;56766;52.260;20.746;2023-08-08T06:10:41;99872.40;;;17.70
69545;BMP180;56766;52.260;20.746;2023-08-08T06:13:07;99879.80;;;17.76
69545;BMP180;56766;52.260;20.746;2023-08-08T06:15:34;99880.20;;;17.92
69545;BMP180;56766;52.260;20.746;2023-08-08T06:18:01;99882.60;;;18.10
69545;BMP180;56766;52.260;20.746;2023-08-08T06:20:27;99889.60;;;18.20
69545;BMP180;56766;52.260;20.746;2023-08-08T06:22:55;99886.60;;;18.30
69545;BMP180;56766;52.260;20.746;2023-08-08T06:25:21;99889.20;;;18.40
69545;BMP180;56766;52.260;20.746;2023-08-08T06:27:48;99892.60;;;18.50
69545;BMP180;56766;52.260;20.746;2023-08-08T06:30:15;99893.20;;;18.50
69545;BMP180;56766;52.260;20.746;2023-08-08T06:32:42;99890.60;;;18.50
69545;BMP180;56766;52.260;20.746;2023-08-08T06:35:09;99894.20;;;18.42
69545;BMP180;56766;52.260;20.746;2023-08-08T06:37:35;99896.00;;;18.40
69545;BMP180;56766;52.260;20.746;2023-08-08T06:40:02;99901.40;;;18.40
69545;BMP180;56766;52.260;20.746;2023-08-08T06:42:29;99896.80;;;18.50
69545;BMP180;56766;52.260;20.746;2023-08-08T06:44:56;99899.00;;;18.60
69545;BMP180;56766;52.260;20.746;2023-08-08T06:47:22;99901.00;;;18.70
69545;BMP180;56766;52.260;20.746;2023-08-08T06:49:49;99900.80;;;18.80
69545;BMP180;56766;52.260;20.746;2023-08-08T06:52:16;99902.00;;;19.00
69545;BMP180;56766;52.260;20.746;2023-08-08T06:54:42;99904.80;;;19.10
69545;BMP180;56766;52.260;20.746;2023-08-08T06:57:09;99909.40;;;19.20
69545;BMP180;56766;52.260;20.746;2023-08-08T06:59:35;99904.40;;;19.20
69545;BMP180;56766;52.260;20.746;2023-08-08T07:02:02;99900.60;;;19.30
69545;BMP180;56766;52.260;20.746;2023-08-08T07:04:29;99896.60;;;19.50
69545;BMP180;56766;52.260;20.746;2023-08-08T07:06:55;99906.20;;;19.60
69545;BMP180;56766;52.260;20.746;2023-08-08T07:09:22;99906.60;;;19.70
69545;BMP180;56766;52.260;20.746;2023-08-08T07:11:49;99905.00;;;19.70
69545;BMP180;56766;52.260;20.746;2023-08-08T07:14:15;99905.20;;;19.80
69545;BMP180;56766;52.260;20.746;2023-08-08T07:16:42;99909.80;;;19.76
69545;BMP180;56766;52.260;20.746;2023-08-08T07:19:08;99911.40;;;19.70
69545;BMP180;56766;52.260;20.746;2023-08-08T07:21:35;99908.60;;;19.60
69545;BMP180;56766;52.260;20.746;2023-08-08T07:24:03;99911.00;;;19.66
69545;BMP180;56766;52.260;20.746;2023-08-08T07:26:30;99907.60;;;19.70
69545;BMP180;56766;52.260;20.746;2023-08-08T07:28:56;99909.60;;;19.80
69545;BMP180;56766;52.260;20.746;2023-08-08T07:31:23;99904.40;;;19.90
69545;BMP180;56766;52.260;20.746;2023-08-08T07:33:49;99906.60;;;19.90
69545;BMP180;56766;52.260;20.746;2023-08-08T07:36:16;99909.40;;;20.10
69545;BMP180;56766;52.260;20.746;2023-08-08T07:38:43;99913.80;;;20.30
69545;BMP180;56766;52.260;20.746;2023-08-08T07:41:09;99922.40;;;20.52
69545;BMP180;56766;52.260;20.746;2023-08-08T07:43:36;99931.20;;;20.60
69545;BMP180;56766;52.260;20.746;2023-08-08T07:46:03;99926.40;;;20.50
69545;BMP180;56766;52.260;20.746;2023-08-08T07:48:29;99921.60;;;20.50
69545;BMP180;56766;52.260;20.746;2023-08-08T07:50:56;99921.40;;;20.50
69545;BMP180;56766;52.260;20.746;2023-08-08T07:53:23;99919.60;;;20.70
69545;BMP180;56766;52.260;20.746;2023-08-08T07:55:49;99919.40;;;20.92
69545;BMP180;56766;52.260;20.746;2023-08-08T07:58:16;99923.40;;;21.10
69545;BMP180;56766;52.260;20.746;2023-08-08T08:00:42;99928.60;;;21.20
69545;BMP180;56766;52.260;20.746;2023-08-08T08:03:10;99918.80;;;21.30
69545;BMP180;56766;52.260;20.746;2023-08-08T08:05:37;99922.40;;;21.30
69545;BMP180;56766;52.260;20.746;2023-08-08T08:08:04;99922.60;;;21.40
69545;BMP180;56766;52.260;20.746;2023-08-08T08:10:31;99921.60;;;21.30
69545;BMP180;56766;52.260;20.746;2023-08-08T08:12:57;99925.60;;;21.40
69545;BMP180;56766;52.260;20.746;2023-08-08T08:15:26;99926.80;;;21.42
69545;BMP180;56766;52.260;20.746;2023-08-08T08:17:52;99925.00;;;21.40
69545;BMP180;56766;52.260;20.746;2023-08-08T08:20:19;99923.60;;;21.60
69545;BMP180;56766;52.260;20.746;2023-08-08T08:22:46;99925.00;;;21.52
69545;BMP180;56766;52.260;20.746;2023-08-08T08:25:14;99919.80;;;21.40
69545;BMP180;56766;52.260;20.746;2023-08-08T08:27:41;99922.40;;;21.50
69545;BMP180;56766;52.260;20.746;2023-08-08T08:30:09;99917.80;;;21.40
69545;BMP180;56766;52.260;20.746;2023-08-08T08:32:41;99917.00;;;21.40
69545;BMP180;56766;52.260;20.746;2023-08-08T08:35:08;99917.00;;;21.50
69545;BMP180;56766;52.260;20.746;2023-08-08T08:37:35;99915.80;;;21.60
69545;BMP180;56766;52.260;20.746;2023-08-08T08:40:02;99917.20;;;21.64
69545;BMP180;56766;52.260;20.746;2023-08-08T08:42:32;99924.20;;;21.90
69545;BMP180;56766;52.260;20.746;2023-08-08T08:45:03;99922.40;;;22.00
69545;BMP180;56766;52.260;20.746;2023-08-08T08:47:32;99916.40;;;22.10
69545;BMP180;56766;52.260;20.746;2023-08-08T08:50:00;99917.60;;;22.00
69545;BMP180;56766;52.260;20.746;2023-08-08T08:52:29;99924.20;;;22.00
69545;BMP180;56766;52.260;20.746;2023-08-08T08:54:57;99921.40;;;21.92
69545;BMP180;56766;52.260;20.746;2023-08-08T08:57:24;99926.60;;;21.80
69545;BMP180;56766;52.260;20.746;2023-08-08T08:59:51;99920.40;;;21.80
69545;BMP180;56766;52.260;20.746;2023-08-08T09:02:19;99922.40;;;21.50
69545;BMP180;56766;52.260;20.746;2023-08-08T09:04:46;99920.20;;;21.50
69545;BMP180;56766;52.260;20.746;2023-08-08T09:07:17;99934.00;;;22.10
69545;BMP180;56766;52.260;20.746;2023-08-08T09:09:45;99929.80;;;22.44
69545;BMP180;56766;52.260;20.746;2023-08-08T09:12:12;99928.80;;;22.82
69545;BMP180;56766;52.260;20.746;2023-08-08T09:14:41;99932.00;;;23.10
69545;BMP180;56766;52.260;20.746;2023-08-08T09:17:13;99928.60;;;23.00
69545;BMP180;56766;52.260;20.746;2023-08-08T09:19:45;99929.60;;;22.80
69545;BMP180;56766;52.260;20.746;2023-08-08T09:22:14;99933.40;;;22.72
69545;BMP180;56766;52.260;20.746;2023-08-08T09:24:42;99935.20;;;22.50
69545;BMP180;56766;52.260;20.746;2023-08-08T09:27:09;99934.00;;;22.18
69545;BMP180;56766;52.260;20.746;2023-08-08T09:29:37;99942.00;;;22.08
69545;BMP180;56766;52.260;20.746;2023-08-08T09:32:07;99939.40;;;22.32
69545;BMP180;56766;52.260;20.746;2023-08-08T09:34:35;99942.20;;;22.40
69545;BMP180;56766;52.260;20.746;2023-08-08T09:37:02;99947.20;;;22.60
69545;BMP180;56766;52.260;20.746;2023-08-08T09:39:31;99949.20;;;22.70
69545;BMP180;56766;52.260;20.746;2023-08-08T09:41:58;99950.40;;;22.80
69545;BMP180;56766;52.260;20.746;2023-08-08T09:44:26;99950.40;;;22.90
69545;BMP180;56766;52.260;20.746;2023-08-08T09:46:57;99948.80;;;23.12
69545;BMP180;56766;52.260;20.746;2023-08-08T09:49:25;99950.20;;;23.36
69545;BMP180;56766;52.260;20.746;2023-08-08T09:51:55;99950.20;;;23.34
69545;BMP180;56766;52.260;20.746;2023-08-08T09:54:26;99955.80;;;23.40
69545;BMP180;56766;52.260;20.746;2023-08-08T09:56:55;99946.20;;;23.44
69545;BMP180;56766;52.260;20.746;2023-08-08T09:59:24;99943.60;;;23.54
69545;BMP180;56766;52.260;20.746;2023-08-08T10:01:51;99936.40;;;23.72
69545;BMP180;56766;52.260;20.746;2023-08-08T10:04:21;99943.40;;;23.80
69545;BMP180;56766;52.260;20.746;2023-08-08T10:06:48;99937.40;;;23.86
69545;BMP180;56766;52.260;20.746;2023-08-08T10:09:17;99941.40;;;23.90
69545;BMP180;56766;52.260;20.746;2023-08-08T10:11:46;99940.20;;;23.56
69545;BMP180;56766;52.260;20.746;2023-08-08T10:14:15;99943.40;;;23.30
69545;BMP180;56766;52.260;20.746;2023-08-08T10:16:43;99947.00;;;22.92
69545;BMP180;56766;52.260;20.746;2023-08-08T10:19:23;99942.40;;;22.64
69545;BMP180;56766;52.260;20.746;2023-08-08T10:21:59;99943.80;;;22.60
69545;BMP180;56766;52.260;20.746;2023-08-08T10:24:36;99947.00;;;22.90
69545;BMP180;56766;52.260;20.746;2023-08-08T10:27:05;99945.40;;;23.30
69545;BMP180;56766;52.260;20.746;2023-08-08T10:29:38;99940.80;;;23.70
69545;BMP180;56766;52.260;20.746;2023-08-08T10:32:07;99937.80;;;24.18
69545;BMP180;56766;52.260;20.746;2023-08-08T10:34:43;99938.40;;;24.74
69545;BMP180;56766;52.260;20.746;2023-08-08T10:37:35;99927.60;;;25.10
69545;BMP180;56766;52.260;20.746;2023-08-08T10:40:07;99934.20;;;25.42
69545;BMP180;56766;52.260;20.746;2023-08-08T10:42:44;99942.40;;;25.84
69545;BMP180;56766;52.260;20.746;2023-08-08T10:45:15;99940.80;;;26.10
69545;BMP180;56766;52.260;20.746;2023-08-08T10:47:45;99938.60;;;26.00
69545;BMP180;56766;52.260;20.746;2023-08-08T10:50:15;99949.80;;;26.34
69545;BMP180;56766;52.260;20.746;2023-08-08T10:55:35;99943.40;;;27.00
69545;BMP180;56766;52.260;20.746;2023-08-08T10:58:13;99949.00;;;26.70
69545;BMP180;56766;52.260;20.746;2023-08-08T11:00:53;99955.80;;;26.20
69545;BMP180;56766;52.260;20.746;2023-08-08T11:03:21;99949.80;;;25.80
69545;BMP180;56766;52.260;20.746;2023-08-08T11:05:48;99956.80;;;26.00
69545;BMP180;56766;52.260;20.746;2023-08-08T11:08:15;99956.40;;;26.10
69545;BMP180;56766;52.260;20.746;2023-08-08T11:10:43;99949.40;;;26.08
69545;BMP180;56766;52.260;20.746;2023-08-08T11:13:11;99957.80;;;25.96
69545;BMP180;56766;52.260;20.746;2023-08-08T11:15:38;99960.00;;;25.64
69545;BMP180;56766;52.260;20.746;2023-08-08T11:18:05;99969.40;;;25.28
69545;BMP180;56766;52.260;20.746;2023-08-08T11:20:36;99967.40;;;25.00
69545;BMP180;56766;52.260;20.746;2023-08-08T11:23:03;99968.40;;;24.66
69545;BMP180;56766;52.260;20.746;2023-08-08T11:25:32;99973.20;;;24.20
69545;BMP180;56766;52.260;20.746;2023-08-08T11:27:59;99974.60;;;24.10
69545;BMP180;56766;52.260;20.746;2023-08-08T11:30:36;99977.40;;;24.10
69545;BMP180;56766;52.260;20.746;2023-08-08T11:33:04;99972.00;;;24.12
69545;BMP180;56766;52.260;20.746;2023-08-08T11:35:33;99972.60;;;24.54
69545;BMP180;56766;52.260;20.746;2023-08-08T11:38:02;99968.60;;;25.00
69545;BMP180;56766;52.260;20.746;2023-08-08T11:40:33;99967.40;;;24.90
69545;BMP180;56766;52.260;20.746;2023-08-08T11:42:59;99963.80;;;25.16
69545;BMP180;56766;52.260;20.746;2023-08-08T11:45:28;99969.00;;;25.52
69545;BMP180;56766;52.260;20.746;2023-08-08T11:48:04;99968.00;;;25.80
69545;BMP180;56766;52.260;20.746;2023-08-08T11:50:37;99970.60;;;25.70
69545;BMP180;56766;52.260;20.746;2023-08-08T11:53:04;99969.20;;;25.28
69545;BMP180;56766;52.260;20.746;2023-08-08T11:55:32;99969.80;;;25.10
69545;BMP180;56766;52.260;20.746;2023-08-08T11:57:59;99972.60;;;25.26
69545;BMP180;56766;52.260;20.746;2023-08-08T12:00:28;99978.00;;;25.40
69545;BMP180;56766;52.260;20.746;2023-08-08T12:02:58;99977.60;;;25.50
69545;BMP180;56766;52.260;20.746;2023-08-08T12:05:25;99984.40;;;25.28
69545;BMP180;56766;52.260;20.746;2023-08-08T12:07:52;99989.80;;;24.90
69545;BMP180;56766;52.260;20.746;2023-08-08T12:10:21;99988.20;;;24.80
69545;BMP180;56766;52.260;20.746;2023-08-08T12:13:00;99985.00;;;24.62
69545;BMP180;56766;52.260;20.746;2023-08-08T12:15:35;99991.80;;;24.40
69545;BMP180;56766;52.260;20.746;2023-08-08T12:18:03;99994.60;;;24.30
69545;BMP180;56766;52.260;20.746;2023-08-08T12:20:31;99989.40;;;24.50
69545;BMP180;56766;52.260;20.746;2023-08-08T12:22:58;99992.20;;;24.82
69545;BMP180;56766;52.260;20.746;2023-08-08T12:25:26;99993.40;;;25.20
69545;BMP180;56766;52.260;20.746;2023-08-08T12:27:52;99988.60;;;25.30
69545;BMP180;56766;52.260;20.746;2023-08-08T12:30:19;99992.40;;;25.20
69545;BMP180;56766;52.260;20.746;2023-08-08T12:32:46;99993.20;;;25.10
69545;BMP180;56766;52.260;20.746;2023-08-08T12:35:13;99995.80;;;24.90
69545;BMP180;56766;52.260;20.746;2023-08-08T12:37:42;100000.40;;;24.70
69545;BMP180;56766;52.260;20.746;2023-08-08T12:40:10;99990.60;;;24.70
69545;BMP180;56766;52.260;20.746;2023-08-08T12:42:36;99993.60;;;24.70
69545;BMP180;56766;52.260;20.746;2023-08-08T12:45:04;99998.60;;;24.90
69545;BMP180;56766;52.260;20.746;2023-08-08T12:47:32;99993.80;;;25.10
69545;BMP180;56766;52.260;20.746;2023-08-08T12:49:59;100001.00;;;25.30
69545;BMP180;56766;52.260;20.746;2023-08-08T12:52:26;99992.20;;;25.36
69545;BMP180;56766;52.260;20.746;2023-08-08T12:54:53;99993.80;;;25.20
69545;BMP180;56766;52.260;20.746;2023-08-08T12:57:19;100001.40;;;24.96
69545;BMP180;56766;52.260;20.746;2023-08-08T12:59:46;99999.00;;;24.60
69545;BMP180;56766;52.260;20.746;2023-08-08T13:02:13;100000.60;;;24.40
69545;BMP180;56766;52.260;20.746;2023-08-08T13:04:40;100004.00;;;24.30
69545;BMP180;56766;52.260;20.746;2023-08-08T13:07:06;100008.80;;;24.30
69545;BMP180;56766;52.260;20.746;2023-08-08T13:09:34;100010.20;;;24.30
69545;BMP180;56766;52.260;20.746;2023-08-08T13:12:01;100019.60;;;24.38
69545;BMP180;56766;52.260;20.746;2023-08-08T13:14:27;100023.00;;;24.30
69545;BMP180;56766;52.260;20.746;2023-08-08T13:16:54;100027.60;;;24.20
69545;BMP180;56766;52.260;20.746;2023-08-08T13:19:20;100022.60;;;24.10
69545;BMP180;56766;52.260;20.746;2023-08-08T13:21:52;100020.60;;;24.02
69545;BMP180;56766;52.260;20.746;2023-08-08T13:24:19;100023.40;;;23.90
69545;BMP180;56766;52.260;20.746;2023-08-08T13:26:50;100029.60;;;23.80
69545;BMP180;56766;52.260;20.746;2023-08-08T13:29:16;100029.80;;;23.70
69545;BMP180;56766;52.260;20.746;2023-08-08T13:31:43;100032.00;;;23.60
69545;BMP180;56766;52.260;20.746;2023-08-08T13:34:10;100039.20;;;23.40
69545;BMP180;56766;52.260;20.746;2023-08-08T13:36:37;100035.40;;;23.20
69545;BMP180;56766;52.260;20.746;2023-08-08T13:39:03;100038.40;;;23.00
69545;BMP180;56766;52.260;20.746;2023-08-08T13:41:31;100043.60;;;22.90
69545;BMP180;56766;52.260;20.746;2023-08-08T13:43:58;100039.00;;;22.80
69545;BMP180;56766;52.260;20.746;2023-08-08T13:46:24;100044.80;;;22.90
69545;BMP180;56766;52.260;20.746;2023-08-08T13:48:52;100045.20;;;23.00
69545;BMP180;56766;52.260;20.746;2023-08-08T13:51:18;100039.40;;;23.20
69545;BMP180;56766;52.260;20.746;2023-08-08T13:53:46;100045.60;;;23.20
69545;BMP180;56766;52.260;20.746;2023-08-08T13:56:15;100043.20;;;23.20
69545;BMP180;56766;52.260;20.746;2023-08-08T13:58:43;100048.60;;;23.10
69545;BMP180;56766;52.260;20.746;2023-08-08T14:01:10;100043.20;;;23.10
69545;BMP180;56766;52.260;20.746;2023-08-08T14:03:36;100043.80;;;22.92